Time;durP1;ratioP1;P1;durP2;ratioP2;P2;SDS_P1;SDS_P2;PMS_P1;PMS_P2;Temp;Humidity;BMP_temperature;BMP_pressure;BME280_temperature;BME280_humidity;BME280_pressure;Samples;Min_cycle;Max_cycle;Signal;HPM_P1;HPM_P2
2022/07/05 00:00:37;;;;;;;5.75;3.22;;;;;;;15.26;100.00;99684.06;4884731;29;20498;-85
2022/07/05 00:03:03;;;;;;;5.15;2.88;;;;;;;15.30;100.00;99681.78;4888240;29;20048;-85
2022/07/05 00:05:28;;;;;;;6.35;2.70;;;;;;;15.59;100.00;99690.22;4906741;29;20076;-85
2022/07/05 00:07:54;;;;;;;9.02;3.17;;;;;;;15.38;100.00;99687.66;4907666;29;20096;-85
2022/07/05 00:10:22;;;;;;;5.55;3.15;;;;;;;15.67;100.00;99696.09;4901875;29;20040;-86
2022/07/05 00:12:48;;;;;;;6.00;2.65;;;;;;;15.62;100.00;99697.75;4891203;29;20128;-85
2022/07/05 00:15:20;;;;;;;5.45;3.05;;;;;;;15.52;100.00;99701.63;4892772;29;20506;-85
2022/07/05 00:17:45;;;;;;;9.10;3.13;;;;;;;15.60;100.00;99694.50;4885817;29;20409;-86
2022/07/05 00:20:14;;;;;;;8.10;2.80;;;;;;;15.68;100.00;99676.53;4906417;29;20083;-86
2022/07/05 00:22:40;;;;;;;3.08;2.75;;;;;;;15.83;100.00;99683.38;4871183;29;20449;-86
2022/07/05 00:25:06;;;;;;;10.13;2.92;;;;;;;15.90;100.00;99684.16;4906771;29;20177;-86
2022/07/05 00:27:32;;;;;;;5.30;3.15;;;;;;;15.77;100.00;99679.75;4888361;29;20135;-86
2022/07/05 00:29:57;;;;;;;5.35;2.92;;;;;;;15.79;100.00;99682.16;4874299;29;20070;-86
2022/07/05 00:32:23;;;;;;;4.90;2.92;;;;;;;15.57;100.00;99680.66;4873041;29;20040;-87
2022/07/05 00:34:49;;;;;;;5.60;3.05;;;;;;;15.50;100.00;99674.56;4907400;29;20024;-86
2022/07/05 00:37:15;;;;;;;6.47;2.80;;;;;;;15.34;100.00;99670.59;4905771;29;20130;-86
2022/07/05 00:39:41;;;;;;;9.63;3.38;;;;;;;15.40;100.00;99674.22;4891208;29;20025;-86
2022/07/05 00:42:06;;;;;;;6.85;3.22;;;;;;;15.20;100.00;99669.84;4906685;29;20086;-87
2022/07/05 00:44:35;;;;;;;7.30;3.00;;;;;;;15.17;100.00;99669.44;4906789;29;20040;-86
2022/07/05 00:47:02;;;;;;;6.55;3.42;;;;;;;14.78;100.00;99662.22;4906986;29;20028;-87
2022/07/05 00:49:30;;;;;;;10.82;3.60;;;;;;;14.95;100.00;99662.59;4891510;29;20060;-87
2022/07/05 00:51:57;;;;;;;10.02;3.10;;;;;;;15.01;100.00;99652.22;4890000;29;20028;-87
2022/07/05 00:54:25;;;;;;;6.53;3.72;;;;;;;14.90;100.00;99661.59;4905522;29;20550;-87
2022/07/05 00:56:52;;;;;;;8.82;3.40;;;;;;;14.83;100.00;99658.97;4888793;29;20051;-87
2022/07/05 00:59:17;;;;;;;10.00;3.70;;;;;;;14.63;100.00;99659.78;4887350;29;20056;-86
2022/07/05 01:01:44;;;;;;;9.40;3.97;;;;;;;14.65;100.00;99668.31;4906821;29;20462;-86
2022/07/05 01:04:11;;;;;;;8.30;3.28;;;;;;;14.71;100.00;99649.03;4888767;29;20036;-86
2022/07/05 01:06:39;;;;;;;6.32;3.55;;;;;;;14.79;100.00;99653.28;4888039;29;20483;-86
2022/07/05 01:09:12;;;;;;;8.15;3.50;;;;;;;14.75;100.00;99657.34;4887412;29;20036;-87
2022/07/05 01:11:45;;;;;;;11.27;3.50;;;;;;;14.49;100.00;99652.88;4888221;29;20051;-87
2022/07/05 01:14:20;;;;;;;10.13;3.53;;;;;;;14.46;100.00;99658.59;4905609;29;20057;-86
2022/07/05 01:16:47;;;;;;;6.63;3.20;;;;;;;14.61;100.00;99656.53;4904351;29;20040;-87
2022/07/05 01:19:13;;;;;;;8.55;3.67;;;;;;;14.73;100.00;99669.97;4905194;29;20101;-86
2022/07/05 01:21:41;;;;;;;9.82;3.10;;;;;;;14.48;100.00;99667.13;4888752;29;20033;-87
2022/07/05 01:24:13;;;;;;;13.25;4.43;;;;;;;14.75;100.00;99677.69;4904372;29;20104;-86
2022/07/05 01:26:40;;;;;;;4.65;2.90;;;;;;;14.62;100.00;99671.38;4905632;29;20035;-86
2022/07/05 01:29:09;;;;;;;5.65;3.05;;;;;;;14.46;100.00;99664.69;4889201;29;20033;-88
2022/07/05 01:31:38;;;;;;;12.15;3.33;;;;;;;14.50;100.00;99659.78;4890676;29;20036;-87
2022/07/05 01:34:07;;;;;;;8.23;3.20;;;;;;;14.38;100.00;99663.06;4904030;29;20080;-87
2022/07/05 01:36:34;;;;;;;12.60;2.90;;;;;;;14.59;100.00;99655.94;4904888;29;20447;-86
2022/07/05 01:39:01;;;;;;;4.93;2.92;;;;;;;14.59;100.00;99663.88;4902725;29;20055;-87
2022/07/05 01:41:26;;;;;;;14.70;3.08;;;;;;;14.45;100.00;99649.03;4886451;29;20028;-87
2022/07/05 01:43:52;;;;;;;8.57;3.58;;;;;;;14.41;100.00;99657.38;4885524;29;20043;-88
2022/07/05 01:46:22;;;;;;;6.20;2.63;;;;;;;14.59;100.00;99663.03;4887784;29;20522;-88
2022/07/05 01:48:51;;;;;;;8.98;3.00;;;;;;;14.56;100.00;99670.34;4901888;29;20494;-88
2022/07/05 01:51:22;;;;;;;10.77;2.60;;;;;;;14.51;100.00;99667.53;4904137;29;20100;-88
2022/07/05 01:53:52;;;;;;;6.63;2.63;;;;;;;14.30;100.00;99671.19;4906012;29;20423;-88
2022/07/05 01:56:18;;;;;;;12.60;2.90;;;;;;;14.30;100.00;99671.19;4903496;29;20198;-87
2022/07/05 01:58:45;;;;;;;9.02;2.78;;;;;;;14.45;100.00;99662.25;4872955;29;20032;-87
2022/07/05 02:01:12;;;;;;;5.82;2.60;;;;;;;14.50;100.00;99668.56;4907251;29;20060;-87
2022/07/05 02:03:39;;;;;;;8.82;2.95;;;;;;;14.19;100.00;99661.25;4886007;29;20096;-87
2022/07/05 02:06:06;;;;;;;9.00;2.90;;;;;;;14.03;100.00;99655.34;4903864;29;20040;-88
2022/07/05 02:08:31;;;;;;;4.75;2.40;;;;;;;13.88;100.00;99667.91;4904028;29;20558;-87
2022/07/05 02:10:57;;;;;;;7.68;2.67;;;;;;;14.09;100.00;99662.44;4887643;29;20040;-87
2022/07/05 02:13:23;;;;;;;6.93;3.55;;;;;;;14.18;100.00;99657.00;4889525;29;20047;-87
2022/07/05 02:15:49;;;;;;;10.38;3.40;;;;;;;13.96;100.00;99654.53;4892203;29;20503;-87
2022/07/05 02:18:14;;;;;;;6.88;2.38;;;;;;;14.19;100.00;99651.47;4889480;29;20032;-87
2022/07/05 02:20:41;;;;;;;5.82;2.40;;;;;;;14.31;100.00;99656.16;4892599;29;20036;-87
2022/07/05 02:23:08;;;;;;;8.57;2.08;;;;;;;14.30;100.00;99657.19;4906212;29;20040;-87
2022/07/05 02:25:35;;;;;;;7.05;2.53;;;;;;;14.26;100.00;99662.06;4905828;29;20035;-87
2022/07/05 02:28:01;;;;;;;7.72;3.00;;;;;;;14.17;100.00;99666.72;4892159;29;20491;-87
2022/07/05 02:30:28;;;;;;;7.63;2.00;;;;;;;13.96;100.00;99670.38;4908327;29;20033;-87
2022/07/05 02:32:53;;;;;;;5.97;2.33;;;;;;;14.02;100.00;99664.28;4906516;29;20508;-87
2022/07/05 02:35:19;;;;;;;11.32;3.00;;;;;;;13.84;100.00;99660.41;4908958;29;20432;-88
2022/07/05 02:37:44;;;;;;;6.57;2.17;;;;;;;13.78;100.00;99665.66;4907205;29;20040;-87
2022/07/05 02:40:13;;;;;;;7.22;2.35;;;;;;;13.66;100.00;99662.78;4908992;29;20032;-86
2022/07/05 02:42:39;;;;;;;5.68;2.30;;;;;;;13.64;100.00;99662.97;4891254;29;20032;-88
2022/07/05 02:45:06;;;;;;;4.18;2.55;;;;;;;13.73;100.00;99653.06;4894673;29;20117;-88
2022/07/05 02:47:34;;;;;;;8.18;2.30;;;;;;;13.68;100.00;99663.41;4905745;29;20037;-88
2022/07/05 02:50:08;;;;;;;6.82;2.67;;;;;;;13.78;100.00;99671.75;4907108;29;20040;-87
2022/07/05 02:52:34;;;;;;;8.65;2.30;;;;;;;13.97;100.00;99667.50;4904499;29;20435;-87
2022/07/05 02:55:01;;;;;;;7.35;2.17;;;;;;;13.90;100.00;99669.34;4890506;29;20368;-87
2022/07/05 02:57:27;;;;;;;5.72;2.40;;;;;;;13.86;100.00;99665.47;4891783;29;20474;-87
2022/07/05 02:59:54;;;;;;;7.50;2.25;;;;;;;13.85;100.00;99664.66;4893914;29;20083;-87
2022/07/05 03:02:20;;;;;;;4.45;2.17;;;;;;;13.76;100.00;99668.50;4904871;29;20051;-87
2022/07/05 03:04:45;;;;;;;12.77;2.58;;;;;;;13.82;100.00;99665.06;4907622;29;20414;-88
2022/07/05 03:07:11;;;;;;;6.97;2.45;;;;;;;13.70;100.00;99666.66;4889131;29;20032;-88
2022/07/05 03:09:36;;;;;;;6.88;2.33;;;;;;;13.57;100.00;99655.06;4908245;29;20484;-88
2022/07/05 03:12:02;;;;;;;6.22;2.33;;;;;;;13.65;100.00;99666.44;4888794;29;20119;-88
2022/07/05 03:14:28;;;;;;;7.00;2.63;;;;;;;13.67;100.00;99675.78;4892110;29;20048;-88
2022/07/05 03:16:53;;;;;;;5.88;2.08;;;;;;;13.60;100.00;99674.16;4889290;29;20039;-88
2022/07/05 03:19:19;;;;;;;3.97;2.30;;;;;;;13.45;100.00;99663.72;4906341;29;20139;-88
2022/07/05 03:21:45;;;;;;;9.27;2.78;;;;;;;13.65;100.00;99671.72;4903730;29;20083;-89
2022/07/05 03:24:10;;;;;;;8.75;2.50;;;;;;;13.61;100.00;99662.59;4887897;29;20120;-89
2022/07/05 03:26:36;;;;;;;7.43;2.20;;;;;;;13.72;100.00;99664.63;4891923;29;20112;-88
2022/07/05 03:29:01;;;;;;;4.68;2.40;;;;;;;13.63;100.00;99656.06;4910565;29;20044;-88
2022/07/05 03:31:27;;;;;;;10.52;2.35;;;;;;;13.94;100.00;99661.81;4892135;29;20103;-87
2022/07/05 03:33:52;;;;;;;8.02;2.20;;;;;;;13.88;100.00;99663.47;4910674;29;20032;-87
2022/07/05 03:36:18;;;;;;;5.35;2.40;;;;;;;13.80;100.00;99671.53;4905989;29;20037;-87
2022/07/05 03:38:43;;;;;;;10.68;2.25;;;;;;;14.04;100.00;99667.53;4908313;29;20056;-88
2022/07/05 03:41:09;;;;;;;5.65;2.47;;;;;;;14.08;100.00;99678.50;4888308;29;20531;-88
2022/07/05 03:43:35;;;;;;;9.05;2.20;;;;;;;13.75;100.00;99679.25;4892159;29;20067;-89
2022/07/05 03:46:01;;;;;;;9.00;3.25;;;;;;;13.85;100.00;99677.84;4894032;29;20406;-88
2022/07/05 03:48:27;;;;;;;10.30;2.80;;;;;;;13.98;100.00;99673.63;4907166;29;20432;-88
2022/07/05 03:50:53;;;;;;;9.07;2.45;;;;;;;13.98;100.00;99684.19;4907054;29;20082;-88
2022/07/05 03:53:19;;;;;;;9.82;2.75;;;;;;;13.91;100.00;99688.63;4890317;29;20395;-87
2022/07/05 03:55:44;;;;;;;8.93;2.90;;;;;;;13.95;100.00;99684.56;4908292;29;20439;-87
2022/07/05 03:58:10;;;;;;;7.55;3.08;;;;;;;14.03;100.00;99687.03;4905568;29;20029;-86
2022/07/05 04:00:35;;;;;;;12.63;3.20;;;;;;;13.84;100.00;99678.03;4890147;29;20068;-88
2022/07/05 04:03:01;;;;;;;9.20;2.78;;;;;;;13.94;100.00;99682.94;4887269;29;20053;-87
2022/07/05 04:05:27;;;;;;;7.88;2.80;;;;;;;13.70;100.00;99690.41;4906609;29;20033;-87
2022/07/05 04:07:55;;;;;;;16.85;3.72;;;;;;;14.13;100.00;99697.19;4892296;29;20115;-87
2022/07/05 04:10:24;;;;;;;7.35;3.35;;;;;;;14.00;100.00;99692.72;4891037;29;20024;-88
2022/07/05 04:12:53;;;;;;;6.68;3.17;;;;;;;14.08;100.00;99689.06;4889842;29;20481;-88
2022/07/05 04:15:18;;;;;;;10.45;3.00;;;;;;;13.91;100.00;99700.00;4889490;29;20119;-88
2022/07/05 04:17:58;;;;;;;6.88;2.83;;;;;;;14.10;100.00;99700.22;4884392;29;20547;-88
2022/07/05 04:20:24;;;;;;;6.45;2.78;;;;;;;14.07;100.00;99698.00;4872811;29;20055;-87
2022/07/05 04:22:51;;;;;;;7.03;2.72;;;;;;;14.13;100.00;99697.19;4887102;29;20036;-88
2022/07/05 04:25:18;;;;;;;9.25;3.60;;;;;;;14.01;100.00;99704.88;4907509;29;20040;-87
2022/07/05 04:27:49;;;;;;;7.93;2.80;;;;;;;13.96;100.00;99696.75;4888822;29;20058;-88
2022/07/05 04:30:16;;;;;;;9.48;3.20;;;;;;;13.82;100.00;99691.44;4907021;29;20032;-88
2022/07/05 04:32:42;;;;;;;5.60;2.40;;;;;;;14.05;100.00;99702.63;4890595;29;20032;-88
2022/07/05 04:35:08;;;;;;;6.18;2.88;;;;;;;14.04;100.00;99706.28;4908436;29;20120;-87
2022/07/05 04:37:34;;;;;;;12.68;3.15;;;;;;;13.85;100.00;99698.13;4889224;29;20040;-88
2022/07/05 04:39:59;;;;;;;9.15;3.08;;;;;;;14.13;100.00;99703.25;4887734;29;20027;-88
2022/07/05 04:42:25;;;;;;;9.82;3.50;;;;;;;13.99;100.00;99710.34;4908261;29;20140;-88
2022/07/05 04:44:50;;;;;;;12.05;2.95;;;;;;;13.77;100.00;99709.72;4886824;29;20068;-87
2022/07/05 04:47:16;;;;;;;8.48;3.13;;;;;;;13.86;100.00;99712.97;4906059;29;20110;-88
2022/07/05 04:49:42;;;;;;;5.80;2.85;;;;;;;14.13;100.00;99708.53;4905866;29;20478;-88
2022/07/05 04:52:08;;;;;;;9.38;2.92;;;;;;;14.35;100.00;99703.09;4905734;29;20040;-88
2022/07/05 04:54:35;;;;;;;9.82;3.25;;;;;;;14.19;100.00;99714.06;4904117;29;20043;-88
2022/07/05 04:57:00;;;;;;;8.98;3.20;;;;;;;14.29;100.00;99717.09;4886349;29;20059;-88
2022/07/05 04:59:25;;;;;;;8.93;2.85;;;;;;;14.60;100.00;99718.31;4887947;29;20025;-87
2022/07/05 05:01:51;;;;;;;9.60;2.60;;;;;;;14.25;100.00;99702.69;4904466;29;20043;-88
2022/07/05 05:04:18;;;;;;;7.50;2.67;;;;;;;14.47;100.00;99723.59;4875941;29;20471;-88
2022/07/05 05:06:43;;;;;;;7.78;3.10;;;;;;;14.70;100.00;99728.47;4905972;29;20076;-87
2022/07/05 05:09:09;;;;;;;9.73;4.47;;;;;;;14.48;100.00;99725.22;4888862;29;20459;-87
2022/07/05 05:11:34;;;;;;;7.43;2.97;;;;;;;14.79;100.00;99726.47;4905737;29;20073;-87
2022/07/05 05:14:00;;;;;;;8.55;3.03;;;;;;;14.92;100.00;99739.66;4902275;29;20143;-87
2022/07/05 05:16:25;;;;;;;9.15;3.28;;;;;;;14.63;100.00;99739.06;4905157;29;20036;-88
2022/07/05 05:18:51;;;;;;;8.93;2.85;;;;;;;14.91;100.00;99740.66;4907482;29;20172;-87
2022/07/05 05:21:17;;;;;;;9.85;2.63;;;;;;;14.96;100.00;99751.47;4905611;29;20476;-87
2022/07/05 05:23:43;;;;;;;7.43;2.65;;;;;;;15.10;100.00;99743.50;4904221;29;20111;-88
2022/07/05 05:26:08;;;;;;;11.15;2.75;;;;;;;15.47;100.00;99753.56;4904189;29;20515;-87
2022/07/05 05:28:34;;;;;;;10.02;3.03;;;;;;;15.50;100.00;99755.78;4904874;29;20032;-87
2022/07/05 05:31:06;;;;;;;11.63;3.63;;;;;;;15.47;100.00;99767.59;4903773;29;20112;-87
2022/07/05 05:33:31;;;;;;;6.20;2.60;;;;;;;15.76;100.00;99754.88;4905716;29;20041;-87
2022/07/05 05:35:57;;;;;;;10.65;2.85;;;;;;;15.89;100.00;99761.13;4905652;29;20036;-87
2022/07/05 05:38:23;;;;;;;7.30;2.63;;;;;;;15.66;100.00;99762.44;4908585;29;20040;-88
2022/07/05 05:40:49;;;;;;;10.65;2.83;;;;;;;15.25;100.00;99762.56;4906142;29;20036;-88
2022/07/05 05:43:14;;;;;;;10.05;2.83;;;;;;;15.39;100.00;99768.63;4910876;29;20043;-88
2022/07/05 05:45:40;;;;;;;9.48;2.97;;;;;;;15.79;100.00;99778.28;4904252;29;20406;-88
2022/07/05 05:48:06;;;;;;;9.90;3.33;;;;;;;16.14;100.00;99774.44;4889905;29;20032;-89
2022/07/05 05:50:34;;;;;;;8.45;3.13;;;;;;;15.99;100.00;99772.91;4905881;29;20036;-89
2022/07/05 05:53:00;;;;;;;9.90;2.85;;;;;;;15.70;100.00;99790.94;4891280;29;20059;-88
2022/07/05 05:55:29;;;;;;;10.90;3.17;;;;;;;15.83;100.00;99783.97;4875999;29;20041;-88
2022/07/05 05:57:57;;;;;;;10.98;3.20;;;;;;;15.66;100.00;99778.31;4909959;29;20365;-88
2022/07/05 06:00:23;;;;;;;8.32;3.13;;;;;;;15.47;100.00;99785.31;4892148;29;20039;-88
2022/07/05 06:02:50;;;;;;;7.65;2.83;;;;;;;15.44;100.00;99794.47;4891812;29;20032;-88
2022/07/05 06:05:16;;;;;;;14.35;3.20;;;;;;;15.64;99.53;99783.00;4887917;29;20048;-87
2022/07/05 06:07:47;;;;;;;12.43;3.50;;;;;;;15.68;99.46;99802.75;4906500;29;20028;-88
2022/07/05 06:10:21;;;;;;;6.25;2.78;;;;;;;15.50;99.26;99790.19;4905335;29;20372;-89
2022/07/05 06:12:48;;;;;;;11.50;3.97;;;;;;;15.51;98.14;99797.09;4903819;29;20052;-89
2022/07/05 06:15:13;;;;;;;6.70;2.88;;;;;;;15.31;98.42;99792.69;4890216;29;20028;-88
2022/07/05 06:17:39;;;;;;;7.82;2.58;;;;;;;15.26;96.89;99788.00;4909128;29;20498;-89
2022/07/05 06:20:10;;;;;;;8.82;2.85;;;;;;;15.78;94.92;99794.34;4893634;29;20051;-89
2022/07/05 06:22:37;;;;;;;9.77;2.65;;;;;;;15.80;94.44;99789.66;4891433;29;20111;-89
2022/07/05 06:25:03;;;;;;;10.55;2.90;;;;;;;16.61;93.00;99787.38;4891857;29;20037;-90
2022/07/05 06:27:29;;;;;;;7.70;2.35;;;;;;;16.61;92.02;99784.72;4910095;29;20436;-89
2022/07/05 06:29:55;;;;;;;5.35;2.97;;;;;;;16.88;92.77;99799.63;4905172;29;20056;-88
2022/07/05 06:32:20;;;;;;;7.63;2.38;;;;;;;16.80;92.61;99809.47;4889262;29;20092;-88
2022/07/05 06:35:21;;;;;;;8.30;2.50;;;;;;;16.81;91.62;99805.78;4890906;29;20036;-88
2022/07/05 06:37:48;;;;;;;8.55;2.42;;;;;;;17.03;91.64;99818.69;4891899;29;20039;-88
2022/07/05 06:40:19;;;;;;;8.55;2.60;;;;;;;17.31;91.62;99806.00;4870035;29;20060;-89
2022/07/05 06:42:44;;;;;;;5.05;2.22;;;;;;;16.53;91.69;99806.22;4905429;29;20033;-89
2022/07/05 06:45:10;;;;;;;11.98;2.58;;;;;;;17.06;90.55;99815.59;4889672;29;20051;-89
2022/07/05 06:47:36;;;;;;;9.93;2.35;;;;;;;17.39;89.90;99805.69;4886195;29;20108;-89
2022/07/05 06:50:21;;;;;;;8.02;2.53;;;;;;;18.10;88.82;99813.25;4907213;29;20275;-88
2022/07/05 06:52:46;;;;;;;6.18;2.25;;;;;;;17.81;88.26;99818.28;4893812;29;20143;-87
2022/07/05 06:55:12;;;;;;;6.15;2.28;;;;;;;18.42;86.63;99803.16;4908385;29;20232;-89
2022/07/05 06:57:47;;;;;;;4.95;2.13;;;;;;;18.27;85.11;99802.78;4873653;29;20040;-89
2022/07/05 07:00:16;;;;;;;8.50;2.38;;;;;;;17.96;86.33;99804.63;4889345;29;20060;-89
2022/07/05 07:02:41;;;;;;;10.00;2.30;;;;;;;18.65;84.49;99803.44;4894299;29;20095;-89
2022/07/05 07:05:07;;;;;;;13.40;3.10;;;;;;;17.87;85.91;99814.72;4891065;29;20028;-89
2022/07/05 07:10:18;;;;;;;4.78;2.35;;;;;;;17.95;85.18;99829.56;4889821;29;20044;-87
2022/07/05 07:12:43;;;;;;;7.75;2.40;;;;;;;18.18;84.98;99812.13;4868289;29;20048;-87
2022/07/05 07:15:10;;;;;;;10.02;2.33;;;;;;;18.46;85.24;99826.63;4862758;29;20076;-86
2022/07/05 07:17:36;;;;;;;6.68;2.10;;;;;;;18.17;86.15;99810.50;4886846;29;20511;-88
2022/07/05 07:20:01;;;;;;;10.43;2.88;;;;;;;18.61;84.31;99816.38;4900130;29;20398;-87
2022/07/05 07:22:27;;;;;;;6.68;2.03;;;;;;;18.57;84.87;99815.22;4874291;29;20451;-87
2022/07/05 07:24:53;;;;;;;8.85;2.10;;;;;;;18.60;85.10;99830.72;4889922;29;20053;-87
2022/07/05 07:27:18;;;;;;;8.07;2.10;;;;;;;18.63;86.05;99837.44;4869431;29;20101;-86
2022/07/05 07:29:44;;;;;;;6.70;2.10;;;;;;;18.28;86.40;99828.34;4888366;29;20037;-86
2022/07/05 07:32:10;;;;;;;10.65;2.05;;;;;;;18.01;88.14;99849.91;4886974;29;20088;-87
2022/07/05 07:34:36;;;;;;;5.03;2.42;;;;;;;18.35;87.55;99839.69;4884642;29;20471;-87
2022/07/05 07:37:03;;;;;;;6.88;2.58;;;;;;;18.67;86.91;99849.22;4872165;29;20033;-86
2022/07/05 07:39:31;;;;;;;6.03;2.35;;;;;;;18.96;85.88;99850.22;4857778;29;20053;-85
2022/07/05 07:41:57;;;;;;;6.05;2.58;;;;;;;18.44;85.50;99847.31;4890387;29;20029;-87
2022/07/05 07:44:23;;;;;;;7.30;2.70;;;;;;;18.30;86.61;99850.19;4888658;29;20084;-88
2022/07/05 07:46:50;;;;;;;10.10;2.40;;;;;;;17.88;87.45;99855.38;4886935;29;20034;-87
2022/07/05 07:49:16;;;;;;;12.63;2.53;;;;;;;17.74;87.88;99842.25;4890117;29;20092;-88
2022/07/05 07:51:42;;;;;;;7.63;2.53;;;;;;;17.64;88.86;99834.00;4885415;29;20581;-86
2022/07/05 07:54:08;;;;;;;7.43;2.33;;;;;;;18.00;87.27;99856.25;4889872;29;20057;-87
2022/07/05 07:56:34;;;;;;;6.70;2.42;;;;;;;17.84;87.07;99852.38;4870544;29;20064;-86
2022/07/05 07:58:59;;;;;;;9.23;2.40;;;;;;;17.58;88.33;99862.22;4886072;29;20024;-86
2022/07/05 08:01:25;;;;;;;7.30;1.88;;;;;;;18.22;87.52;99866.44;4870096;29;20032;-87
2022/07/05 08:03:51;;;;;;;8.55;2.53;;;;;;;18.23;87.26;99868.03;4888514;29;20033;-87
2022/07/05 08:06:16;;;;;;;7.13;2.35;;;;;;;18.42;86.68;99864.31;4881686;29;20429;-86
2022/07/05 08:08:44;;;;;;;5.47;2.03;;;;;;;18.23;87.20;99865.38;4888501;29;20039;-85
2022/07/05 08:11:11;;;;;;;5.78;2.25;;;;;;;18.57;87.08;99855.09;4884429;29;20038;-86
2022/07/05 08:13:39;;;;;;;7.97;2.30;;;;;;;19.01;86.13;99846.91;4880722;29;20051;-86
2022/07/05 08:16:05;;;;;;;14.02;2.30;;;;;;;18.91;86.10;99847.44;4881834;29;20036;-86
2022/07/05 08:21:37;;;;;;;5.78;2.25;;;;;;;17.92;88.02;99856.56;4908383;29;20036;-86
2022/07/05 08:24:08;;;;;;;11.20;2.40;;;;;;;18.70;87.50;99867.38;4892126;29;20122;-86
2022/07/05 08:26:33;;;;;;;11.13;2.50;;;;;;;18.50;88.16;99865.84;4889201;29;20498;-86
2022/07/05 08:29:01;;;;;;;7.13;2.40;;;;;;;19.24;85.73;99851.38;4904943;29;20123;-87
2022/07/05 08:31:28;;;;;;;6.07;2.28;;;;;;;18.90;86.10;99859.13;4890037;29;20071;-87
2022/07/05 08:33:58;;;;;;;11.00;2.75;;;;;;;19.59;84.87;99856.91;4905270;29;20027;-87
2022/07/05 08:36:24;;;;;;;5.53;2.25;;;;;;;19.33;84.88;99849.19;4887671;29;20036;-87
2022/07/05 08:38:50;;;;;;;7.60;2.28;;;;;;;19.23;85.48;99852.44;4887879;29;20438;-86
2022/07/05 08:41:20;;;;;;;8.20;2.85;;;;;;;19.23;84.37;99851.63;4887753;29;20064;-86
2022/07/05 08:43:47;;;;;;;10.40;2.83;;;;;;;19.57;84.49;99854.50;4903174;29;20033;-86
2022/07/05 08:46:15;;;;;;;8.93;3.17;;;;;;;19.50;84.82;99859.97;4905449;29;20032;-88
2022/07/05 08:48:48;;;;;;;8.02;2.50;;;;;;;20.26;83.90;99863.63;4886701;29;20391;-87
2022/07/05 08:51:16;;;;;;;8.02;2.67;;;;;;;20.01;83.95;99867.38;4888465;29;20127;-87
2022/07/05 08:53:44;;;;;;;7.22;2.47;;;;;;;20.26;83.46;99860.94;4869917;29;20359;-87
2022/07/05 08:56:11;;;;;;;8.38;2.42;;;;;;;21.01;82.87;99863.53;4903411;29;20475;-87
2022/07/05 08:58:37;;;;;;;7.28;2.30;;;;;;;20.77;83.32;99862.88;4874710;29;20036;-86
2022/07/05 09:01:03;;;;;;;5.65;2.05;;;;;;;20.55;82.13;99863.56;4891242;29;20044;-87
2022/07/05 09:03:43;;;;;;;5.97;1.80;;;;;;;20.93;80.84;99869.28;4906550;29;20033;-87
2022/07/05 09:06:12;;;;;;;6.20;2.00;;;;;;;20.68;81.49;99873.94;4905365;29;20061;-86
2022/07/05 09:08:40;;;;;;;4.05;1.63;;;;;;;20.19;82.20;99885.06;4887922;29;20032;-86
2022/07/05 09:11:12;;;;;;;6.75;2.33;;;;;;;20.33;82.22;99877.59;4905110;29;20036;-88
2022/07/05 09:13:41;;;;;;;8.05;2.70;;;;;;;20.20;84.30;99869.88;4888007;29;20052;-87
2022/07/05 09:16:07;;;;;;;4.97;1.70;;;;;;;20.35;83.73;99874.69;4889169;29;20040;-87
2022/07/05 09:18:42;;;;;;;4.57;1.63;;;;;;;20.36;83.15;99871.78;4886639;29;20043;-87
2022/07/05 09:21:19;;;;;;;5.38;1.95;;;;;;;20.37;83.40;99884.06;4885163;29;20107;-89
2022/07/05 09:23:54;;;;;;;2.45;1.50;;;;;;;20.19;82.64;99863.75;4888201;29;20032;-87
2022/07/05 09:26:19;;;;;;;3.38;1.50;;;;;;;20.41;82.40;99876.41;4886162;29;20041;-86
2022/07/05 09:28:55;;;;;;;3.10;1.50;;;;;;;20.32;82.10;99897.31;4893272;29;20360;-87
2022/07/05 09:31:29;;;;;;;3.45;1.55;;;;;;;20.63;81.47;99897.03;4859036;29;20476;-86
2022/07/05 09:34:03;;;;;;;3.53;1.65;;;;;;;20.91;80.88;99893.56;4890130;29;20032;-86
2022/07/05 09:37:01;;;;;;;3.45;1.67;;;;;;;21.15;80.57;99885.38;4891144;29;20028;-86
2022/07/05 09:39:29;;;;;;;2.08;1.60;;;;;;;20.12;83.24;99898.53;4889748;29;20036;-86
2022/07/05 09:42:23;;;;;;;4.35;1.90;;;;;;;19.92;83.83;99898.91;4875787;29;20036;-88
2022/07/05 09:44:52;;;;;;;4.65;1.60;;;;;;;20.18;84.46;99901.28;4889850;29;20032;-86
2022/07/05 09:47:29;;;;;;;4.82;2.13;;;;;;;21.32;82.47;99900.56;4868251;29;20029;-87
2022/07/05 09:49:56;;;;;;;2.83;1.60;;;;;;;22.11;80.38;99888.00;4888036;29;20032;-87
2022/07/05 09:52:27;;;;;;;5.25;1.80;;;;;;;22.13;80.10;99890.41;4891173;29;20053;-87
2022/07/05 09:55:03;;;;;;;2.13;1.77;;;;;;;22.02;78.57;99897.50;4887661;29;20064;-87
2022/07/05 09:57:29;;;;;;;4.03;2.03;;;;;;;21.45;81.12;99886.88;4889673;29;20025;-88
2022/07/05 10:00:02;;;;;;;7.00;2.45;;;;;;;21.58;80.58;99895.56;4886409;29;20077;-87
2022/07/05 10:02:34;;;;;;;2.75;1.83;;;;;;;21.71;80.58;99897.94;4888651;29;20468;-86
2022/07/05 10:05:15;;;;;;;4.65;1.90;;;;;;;21.07;81.58;99899.94;4884575;29;20487;-86
2022/07/05 10:07:45;;;;;;;2.03;1.73;;;;;;;20.58;82.52;99905.75;4887834;29;20117;-87
2022/07/05 10:10:14;;;;;;;5.47;3.65;;;;;;;20.33;84.16;99888.25;4890476;29;20494;-87
2022/07/05 10:12:40;;;;;;;8.05;4.88;;;;;;;19.73;88.52;99900.91;4887606;29;20044;-88
2022/07/05 10:15:09;;;;;;;3.95;2.20;;;;;;;20.08;99.15;99910.72;4890534;29;20361;-85
2022/07/05 10:17:44;;;;;;;6.80;4.28;;;;;;;19.76;100.00;99911.09;4891183;29;20045;-86
2022/07/05 10:20:34;;;;;;;9.63;5.55;;;;;;;20.02;100.00;99893.00;4888598;29;20037;-87
2022/07/05 10:23:03;;;;;;;4.15;1.70;;;;;;;19.91;100.00;99896.47;4871421;29;20041;-86
2022/07/05 10:25:30;;;;;;;7.72;3.03;;;;;;;19.83;100.00;99902.97;4888424;29;20017;-87
2022/07/05 10:27:57;;;;;;;5.68;2.80;;;;;;;20.53;98.63;99914.47;4890919;29;20044;-87
2022/07/05 10:30:23;;;;;;;5.78;2.90;;;;;;;20.52;97.37;99896.84;4889453;29;20116;-87
2022/07/05 10:32:49;;;;;;;9.63;5.60;;;;;;;20.58;92.85;99894.31;4891161;29;20399;-86
2022/07/05 10:35:20;;;;;;;4.03;2.80;;;;;;;19.94;92.52;99922.69;4872135;29;20028;-87
2022/07/05 10:37:47;;;;;;;5.95;4.10;;;;;;;19.64;93.18;99902.28;4871988;29;20043;-86
2022/07/05 10:40:14;;;;;;;7.72;5.88;;;;;;;19.43;92.56;99909.84;4874761;29;20036;-87
2022/07/05 10:42:42;;;;;;;5.60;3.53;;;;;;;19.34;92.88;99913.91;4892221;29;20052;-87
2022/07/05 10:45:30;;;;;;;5.43;3.35;;;;;;;18.97;92.51;99910.34;4886614;29;20029;-86
2022/07/05 10:48:35;;;;;;;6.00;3.05;;;;;;;19.46;91.42;99912.06;4881945;29;20056;-89
2022/07/05 10:51:06;;;;;;;2.38;1.67;;;;;;;19.45;90.75;99913.06;4866159;29;20123;-86
2022/07/05 10:53:35;;;;;;;1.40;1.30;;;;;;;19.12;90.04;99896.63;4884536;29;20047;-87
2022/07/05 10:56:03;;;;;;;1.50;1.40;;;;;;;19.10;89.18;99906.69;4886597;29;20037;-85
2022/07/05 10:58:36;;;;;;;2.20;2.00;;;;;;;19.45;86.65;99886.44;4880970;29;20060;-86
2022/07/05 11:01:20;;;;;;;14.80;7.97;;;;;;;20.54;85.03;99902.78;4884345;29;20033;-86
2022/07/05 11:04:05;;;;;;;7.75;3.47;;;;;;;21.23;83.90;99892.16;4890486;29;20062;-87
2022/07/05 11:06:37;;;;;;;4.35;2.53;;;;;;;21.25;81.72;99890.06;4888547;29;20109;-87
2022/07/05 11:09:03;;;;;;;6.32;3.22;;;;;;;21.29;80.53;99893.06;4890397;29;20037;-86
2022/07/05 11:11:35;;;;;;;6.03;3.00;;;;;;;21.22;77.30;99898.56;4886466;29;20028;-92
2022/07/05 11:14:03;;;;;;;6.35;4.00;;;;;;;20.86;79.55;99901.47;4878819;29;20056;-88
2022/07/05 11:16:33;;;;;;;9.55;6.53;;;;;;;20.64;78.39;99899.50;4872953;29;20043;-89
2022/07/05 11:19:05;;;;;;;12.40;7.05;;;;;;;20.90;77.51;99907.94;4887222;29;20036;-90
2022/07/05 11:21:30;;;;;;;6.35;4.93;;;;;;;20.92;75.85;99892.50;4893520;29;20032;-89
2022/07/05 11:24:21;;;;;;;5.85;3.85;;;;;;;21.50;76.73;99894.97;4902448;29;20028;-90
2022/07/05 11:26:49;;;;;;;5.50;3.20;;;;;;;21.42;75.69;99884.72;4879739;29;20044;-90
2022/07/05 11:29:39;;;;;;;4.22;2.47;;;;;;;21.36;75.33;99905.19;4877404;29;20104;-87
2022/07/05 11:32:05;;;;;;;4.10;2.60;;;;;;;21.36;74.34;99904.34;4878235;29;20119;-89
2022/07/05 11:34:35;;;;;;;3.85;2.35;;;;;;;21.98;75.49;99881.13;4878345;29;20040;-91
2022/07/05 11:37:26;;;;;;;3.60;2.33;;;;;;;22.14;70.96;99916.06;4892982;29;20052;-89